sensor_id;sensor_type;location;lat;lon;timestamp;P1;durP1;ratioP1;P2;durP2;ratioP2
1567;SDS011;777;47.156;8.326;2024-03-17T00:04:09;2.53;;;1.20;;
1567;SDS011;777;47.156;8.326;2024-03-17T00:34:12;2.75;;;1.20;;
1567;SDS011;777;47.156;8.326;2024-03-17T01:04:17;3.25;;;1.55;;
1567;SDS011;777;47.156;8.326;2024-03-17T01:34:20;3.78;;;2.08;;
1567;SDS011;777;47.156;8.326;2024-03-17T02:34:27;4.80;;;2.60;;
1567;SDS011;777;47.156;8.326;2024-03-17T03:04:30;5.23;;;2.30;;
1567;SDS011;777;47.156;8.326;2024-03-17T03:34:33;3.30;;;2.40;;
1567;SDS011;777;47.156;8.326;2024-03-17T04:04:37;7.30;;;3.40;;
1567;SDS011;777;47.156;8.326;2024-03-17T04:34:40;7.50;;;3.97;;
1567;SDS011;777;47.156;8.326;2024-03-17T05:04:45;5.10;;;2.80;;
1567;SDS011;777;47.156;8.326;2024-03-17T05:34:48;5.17;;;4.50;;
1567;SDS011;777;47.156;8.326;2024-03-17T06:04:51;6.33;;;4.67;;
1567;SDS011;777;47.156;8.326;2024-03-17T07:04:58;5.57;;;3.33;;
1567;SDS011;777;47.156;8.326;2024-03-17T07:35:02;4.47;;;1.90;;
1567;SDS011;777;47.156;8.326;2024-03-17T08:05:07;2.70;;;1.90;;
1567;SDS011;777;47.156;8.326;2024-03-17T08:35:10;4.03;;;2.03;;
1567;SDS011;777;47.156;8.326;2024-03-17T09:05:14;3.67;;;1.40;;
1567;SDS011;777;47.156;8.326;2024-03-17T09:35:17;5.03;;;2.20;;
1567;SDS011;777;47.156;8.326;2024-03-17T10:05:21;7.32;;;2.75;;
1567;SDS011;777;47.156;8.326;2024-03-17T10:35:30;3.60;;;2.45;;
1567;SDS011;777;47.156;8.326;2024-03-17T11:05:34;5.55;;;2.50;;
1567;SDS011;777;47.156;8.326;2024-03-17T11:35:38;4.05;;;1.90;;
1567;SDS011;777;47.156;8.326;2024-03-17T12:05:43;3.33;;;2.78;;
1567;SDS011;777;47.156;8.326;2024-03-17T12:35:47;6.13;;;3.10;;
1567;SDS011;777;47.156;8.326;2024-03-17T13:05:55;5.78;;;3.22;;
1567;SDS011;777;47.156;8.326;2024-03-17T13:35:59;5.00;;;3.42;;
1567;SDS011;777;47.156;8.326;2024-03-17T14:06:02;6.25;;;3.50;;
1567;SDS011;777;47.156;8.326;2024-03-17T14:36:06;4.63;;;2.33;;
1567;SDS011;777;47.156;8.326;2024-03-17T15:06:11;3.30;;;1.50;;
1567;SDS011;777;47.156;8.326;2024-03-17T15:36:16;5.90;;;1.70;;
1567;SDS011;777;47.156;8.326;2024-03-17T16:06:21;4.28;;;1.65;;
1567;SDS011;777;47.156;8.326;2024-03-17T16:36:26;3.60;;;1.70;;
1567;SDS011;777;47.156;8.326;2024-03-17T17:06:30;2.38;;;1.63;;
1567;SDS011;777;47.156;8.326;2024-03-17T17:36:34;5.20;;;2.72;;
1567;SDS011;777;47.156;8.326;2024-03-17T18:06:37;6.75;;;4.78;;
1567;SDS011;777;47.156;8.326;2024-03-17T18:36:40;6.88;;;3.72;;
1567;SDS011;777;47.156;8.326;2024-03-17T19:06:45;6.80;;;4.50;;
1567;SDS011;777;47.156;8.326;2024-03-17T19:36:49;8.13;;;5.07;;
1567;SDS011;777;47.156;8.326;2024-03-17T20:06:52;7.05;;;4.53;;
1567;SDS011;777;47.156;8.326;2024-03-17T20:36:56;12.82;;;5.78;;
1567;SDS011;777;47.156;8.326;2024-03-17T21:07:01;6.32;;;4.40;;
1567;SDS011;777;47.156;8.326;2024-03-17T21:37:05;4.88;;;3.70;;
1567;SDS011;777;47.156;8.326;2024-03-17T22:07:09;7.30;;;5.13;;
1567;SDS011;777;47.156;8.326;2024-03-17T22:37:14;7.72;;;6.25;;
1567;SDS011;777;47.156;8.326;2024-03-17T23:07:17;8.77;;;6.80;;
1567;SDS011;777;47.156;8.326;2024-03-17T23:37:21;13.57;;;9.30;;
